createdAt,value
2022-12-19T00:00:10.461Z,0.00
2022-12-19T00:02:41.921Z,0.00
2022-12-19T00:05:09.487Z,0.00
2022-12-19T00:07:36.544Z,0.00
2022-12-19T00:10:04.037Z,0.10
2022-12-19T00:12:31.655Z,0.00
2022-12-19T00:14:58.671Z,0.00
2022-12-19T00:17:28.491Z,0.00
2022-12-19T00:19:55.580Z,0.00
2022-12-19T00:22:22.888Z,0.00
2022-12-19T00:24:49.899Z,0.10
2022-12-19T00:27:17.221Z,0.10
2022-12-19T00:29:44.350Z,0.10
2022-12-19T00:32:11.463Z,0.10
2022-12-19T00:34:42.717Z,0.10
2022-12-19T00:37:11.777Z,0.20
2022-12-19T00:39:39.051Z,0.20
2022-12-19T00:42:06.448Z,0.20
2022-12-19T00:44:33.959Z,0.20
2022-12-19T00:47:01.235Z,0.30
2022-12-19T00:49:28.435Z,0.30
2022-12-19T00:51:57.962Z,0.30
2022-12-19T00:54:25.473Z,0.30
2022-12-19T00:56:53.311Z,0.30
2022-12-19T00:59:26.673Z,0.30
2022-12-19T01:01:57.474Z,0.40
2022-12-19T01:04:29.527Z,0.40
2022-12-19T01:07:02.136Z,0.40
2022-12-19T01:09:36.607Z,0.50
2022-12-19T01:12:25.225Z,0.50
2022-12-19T01:15:04.016Z,0.50
2022-12-19T01:17:38.884Z,0.50
2022-12-19T01:20:19.120Z,0.60
2022-12-19T01:22:59.826Z,0.60
2022-12-19T01:25:28.533Z,0.70
2022-12-19T01:27:56.791Z,0.60
2022-12-19T01:30:24.124Z,0.60
2022-12-19T01:32:51.867Z,0.70
2022-12-19T01:35:22.028Z,0.60
2022-12-19T01:37:59.547Z,0.60
2022-12-19T01:40:36.761Z,0.60
2022-12-19T01:43:04.425Z,0.60
2022-12-19T01:45:42.142Z,0.60
2022-12-19T01:48:37.014Z,0.60
2022-12-19T01:51:20.529Z,0.60
2022-12-19T01:53:58.138Z,0.60
2022-12-19T01:56:33.192Z,0.60
2022-12-19T01:59:07.013Z,0.80
2022-12-19T02:01:51.096Z,0.60
2022-12-19T02:04:24.441Z,0.60
2022-12-19T02:06:56.328Z,0.70
2022-12-19T02:09:24.811Z,0.60
2022-12-19T02:11:53.336Z,0.70
2022-12-19T02:14:21.203Z,0.60
2022-12-19T02:17:17.907Z,0.70
2022-12-19T02:20:25.388Z,0.60
2022-12-19T02:23:15.512Z,0.60
2022-12-19T02:26:25.832Z,0.70
2022-12-19T02:29:27.669Z,0.70
2022-12-19T02:32:11.391Z,0.70
2022-12-19T02:34:50.557Z,0.70
2022-12-19T02:37:30.848Z,0.70
2022-12-19T02:40:10.650Z,0.60
2022-12-19T02:42:42.949Z,0.60
2022-12-19T02:45:15.906Z,0.60
2022-12-19T02:47:53.652Z,0.60
2022-12-19T02:50:21.982Z,0.70
2022-12-19T02:52:49.733Z,0.60
2022-12-19T02:55:23.644Z,0.70
2022-12-19T02:58:23.185Z,0.70
2022-12-19T03:01:14.835Z,0.60
2022-12-19T03:03:58.662Z,0.70
2022-12-19T03:06:39.454Z,0.70
2022-12-19T03:09:51.760Z,0.70
2022-12-19T03:12:33.202Z,0.70
2022-12-19T03:15:01.761Z,0.80
2022-12-19T03:17:29.487Z,0.80
2022-12-19T03:19:58.222Z,0.80
2022-12-19T03:22:25.235Z,0.80
2022-12-19T03:24:52.833Z,0.80
2022-12-19T03:27:28.872Z,0.80
2022-12-19T03:30:06.980Z,0.90
2022-12-19T03:32:36.898Z,0.90
2022-12-19T03:35:26.622Z,0.90
2022-12-19T03:37:57.885Z,0.90
2022-12-19T03:40:27.801Z,1.00
2022-12-19T03:43:12.006Z,1.00
2022-12-19T03:45:58.243Z,1.00
2022-12-19T03:48:46.090Z,1.00
2022-12-19T03:52:05.350Z,1.00
2022-12-19T03:54:40.128Z,1.00
2022-12-19T03:57:21.556Z,1.00
2022-12-19T03:59:56.186Z,1.00
2022-12-19T04:02:24.360Z,1.10
2022-12-19T04:05:03.956Z,1.10
2022-12-19T04:07:32.353Z,1.10
2022-12-19T04:10:02.183Z,1.10
2022-12-19T04:12:38.469Z,1.10
2022-12-19T04:15:07.514Z,1.10
2022-12-19T04:17:57.775Z,1.10
2022-12-19T04:20:30.913Z,1.00
2022-12-19T04:23:20.870Z,1.10
2022-12-19T04:25:52.963Z,1.10
2022-12-19T04:28:27.468Z,1.10
2022-12-19T04:30:55.097Z,1.10
2022-12-19T04:33:22.391Z,1.10
2022-12-19T04:35:49.992Z,1.10
2022-12-19T04:38:17.028Z,1.10
2022-12-19T04:40:44.343Z,1.10
2022-12-19T04:43:11.309Z,1.10
2022-12-19T04:45:40.944Z,1.10
2022-12-19T04:48:08.864Z,1.10
2022-12-19T04:50:36.267Z,1.10
2022-12-19T04:53:03.391Z,1.10
2022-12-19T04:55:30.986Z,1.20
2022-12-19T04:57:58.559Z,1.10
2022-12-19T05:00:25.755Z,1.00
2022-12-19T05:02:52.913Z,1.10
2022-12-19T05:05:20.398Z,1.10
2022-12-19T05:07:47.881Z,1.10
2022-12-19T05:10:15.137Z,1.10
2022-12-19T05:12:42.907Z,1.10
2022-12-19T05:15:10.675Z,1.10
2022-12-19T05:17:38.098Z,1.10
2022-12-19T05:20:07.062Z,1.10
2022-12-19T05:22:34.167Z,1.10
2022-12-19T05:25:01.170Z,1.10
2022-12-19T05:27:28.532Z,1.00
2022-12-19T05:29:55.588Z,1.00
2022-12-19T05:32:22.940Z,1.00
2022-12-19T05:34:49.999Z,1.00
2022-12-19T05:37:17.307Z,1.00
2022-12-19T05:39:44.501Z,1.00
2022-12-19T05:42:12.655Z,1.00
2022-12-19T05:44:39.934Z,1.10
2022-12-19T05:47:07.251Z,1.10
2022-12-19T05:49:34.578Z,1.10
2022-12-19T05:52:01.631Z,1.20
2022-12-19T05:54:28.710Z,1.20
2022-12-19T05:56:56.963Z,1.30
2022-12-19T05:59:24.656Z,1.30
2022-12-19T06:01:51.947Z,1.40
2022-12-19T06:04:19.013Z,1.40
2022-12-19T06:06:46.360Z,1.40
2022-12-19T06:09:13.431Z,1.50
2022-12-19T06:11:40.691Z,1.50
2022-12-19T06:14:07.937Z,1.60
2022-12-19T06:16:35.247Z,1.60
2022-12-19T06:19:02.700Z,1.60
2022-12-19T06:21:29.938Z,1.60
2022-12-19T06:23:56.983Z,1.60
2022-12-19T06:26:24.326Z,1.70
2022-12-19T06:28:53.175Z,1.70
2022-12-19T06:31:23.648Z,1.70
2022-12-19T06:33:52.937Z,1.70
2022-12-19T06:36:27.134Z,1.70
2022-12-19T06:38:56.017Z,1.80
2022-12-19T06:41:42.114Z,1.80
2022-12-19T06:44:15.015Z,2.00
2022-12-19T06:46:43.386Z,1.90
2022-12-19T06:49:11.950Z,1.80
2022-12-19T06:51:39.542Z,1.80
2022-12-19T06:54:06.932Z,1.90
2022-12-19T06:56:40.409Z,1.90
2022-12-19T06:59:12.359Z,1.90
2022-12-19T07:02:10.026Z,1.90
2022-12-19T07:04:52.699Z,1.90
2022-12-19T07:07:19.967Z,1.90
2022-12-19T07:09:48.425Z,2.00
2022-12-19T07:12:15.450Z,2.00
2022-12-19T07:14:42.976Z,2.00
2022-12-19T07:17:10.218Z,2.10
2022-12-19T07:19:38.123Z,2.10
2022-12-19T07:22:06.158Z,2.10
2022-12-19T07:24:36.037Z,2.10
2022-12-19T07:27:04.112Z,2.10
2022-12-19T07:29:31.283Z,2.20
2022-12-19T07:31:58.694Z,2.20
2022-12-19T07:34:25.765Z,2.20
2022-12-19T07:36:52.857Z,2.20
2022-12-19T07:39:19.932Z,2.20
2022-12-19T07:41:47.009Z,2.30
2022-12-19T07:44:16.497Z,2.30
2022-12-19T07:46:44.710Z,2.30
2022-12-19T07:49:12.011Z,2.40
2022-12-19T07:51:39.267Z,2.40
2022-12-19T07:54:06.502Z,2.40
2022-12-19T07:56:33.851Z,2.50
2022-12-19T07:59:01.156Z,2.50
2022-12-19T08:01:29.379Z,2.60
2022-12-19T08:03:58.157Z,2.60
2022-12-19T08:06:26.905Z,2.60
2022-12-19T08:08:54.310Z,2.70
2022-12-19T08:11:26.804Z,2.70
2022-12-19T08:13:54.958Z,2.80
2022-12-19T08:16:24.462Z,2.80
2022-12-19T08:18:51.714Z,2.80
2022-12-19T08:21:22.315Z,2.90
2022-12-19T08:23:50.471Z,2.90
2022-12-19T08:26:25.033Z,3.00
2022-12-19T08:28:57.427Z,3.00
2022-12-19T08:31:27.511Z,3.10
2022-12-19T08:33:57.743Z,3.10
2022-12-19T08:36:25.741Z,3.10
2022-12-19T08:38:53.471Z,3.20
2022-12-19T08:41:21.059Z,3.30
2022-12-19T08:43:53.985Z,3.30
2022-12-19T08:46:22.917Z,3.40
2022-12-19T08:48:50.670Z,3.40
2022-12-19T08:51:18.490Z,3.50
2022-12-19T08:53:46.638Z,3.60
2022-12-19T08:56:17.956Z,3.60
2022-12-19T08:58:45.865Z,3.70
2022-12-19T09:01:24.005Z,3.70
2022-12-19T09:05:09.566Z,3.80
2022-12-19T09:06:38.510Z,3.90
2022-12-19T09:09:07.047Z,3.90
2022-12-19T09:11:35.518Z,3.90
2022-12-19T09:14:06.374Z,3.90
2022-12-19T09:16:33.504Z,4.00
2022-12-19T09:19:01.099Z,4.00
2022-12-19T09:21:29.604Z,4.00
2022-12-19T09:24:07.209Z,4.10
2022-12-19T09:26:35.986Z,4.10
2022-12-19T09:29:11.003Z,4.10
2022-12-19T09:31:47.839Z,4.20
2022-12-19T09:34:18.400Z,4.20
2022-12-19T09:36:49.563Z,4.30
2022-12-19T09:39:17.373Z,4.30
2022-12-19T09:42:15.352Z,4.40
2022-12-19T09:44:59.218Z,4.40
2022-12-19T09:47:32.072Z,4.40
2022-12-19T09:50:05.820Z,4.50
2022-12-19T09:52:43.665Z,4.50
2022-12-19T09:55:24.450Z,4.60
2022-12-19T09:58:14.255Z,4.90
2022-12-19T10:00:59.859Z,4.70
2022-12-19T10:03:42.217Z,4.70
2022-12-19T10:07:10.960Z,4.90
2022-12-19T10:10:09.791Z,4.90
2022-12-19T10:12:51.352Z,4.90
2022-12-19T10:15:43.177Z,5.00
2022-12-19T10:18:48.450Z,5.10
2022-12-19T10:25:08.796Z,5.30
2022-12-19T10:28:18.533Z,5.40
2022-12-19T10:31:14.104Z,5.50
2022-12-19T10:34:22.548Z,5.50
2022-12-19T10:37:27.031Z,5.60
2022-12-19T10:40:28.544Z,5.70
2022-12-19T10:43:01.387Z,5.80
2022-12-19T10:45:49.521Z,5.80
2022-12-19T10:48:22.458Z,5.90
2022-12-19T10:50:57.477Z,5.90
2022-12-19T10:53:29.983Z,6.00
2022-12-19T10:56:22.321Z,6.00
2022-12-19T10:59:01.203Z,6.10
2022-12-19T11:01:35.725Z,6.20
2022-12-19T11:04:27.863Z,6.30
2022-12-19T11:07:03.916Z,6.30
2022-12-19T11:09:41.888Z,6.40
2022-12-19T11:16:38.338Z,6.50
2022-12-19T11:20:15.709Z,6.50
2022-12-19T11:29:12.206Z,6.70
2022-12-19T11:30:05.169Z,6.60
2022-12-19T11:30:45.503Z,6.60
2022-12-19T11:30:46.250Z,6.60
2022-12-19T11:31:50.969Z,6.60
2022-12-19T11:33:20.126Z,6.60
2022-12-19T11:35:58.431Z,6.60
2022-12-19T11:38:53.004Z,6.60
2022-12-19T11:41:30.770Z,6.50
2022-12-19T11:44:03.514Z,6.50
2022-12-19T11:46:46.908Z,6.40
2022-12-19T11:49:30.622Z,6.40
2022-12-19T11:53:03.424Z,6.40
2022-12-19T11:55:54.881Z,6.30
2022-12-19T11:58:25.372Z,6.20
2022-12-19T12:01:23.772Z,6.20
2022-12-19T12:04:48.341Z,6.20
2022-12-19T12:07:31.904Z,6.10
2022-12-19T12:15:48.043Z,6.00
2022-12-19T12:21:46.711Z,5.90
2022-12-19T12:30:02.494Z,5.90
2022-12-19T12:31:13.625Z,5.90
2022-12-19T12:31:21.672Z,5.80
2022-12-19T12:31:42.233Z,5.70
2022-12-19T12:31:54.111Z,5.70
2022-12-19T12:35:33.025Z,5.70
2022-12-19T12:39:16.002Z,5.70
2022-12-19T12:42:14.358Z,5.70
2022-12-19T12:44:45.916Z,5.70
2022-12-19T12:47:21.192Z,5.70
2022-12-19T12:50:06.573Z,5.60
2022-12-19T12:52:38.497Z,5.70
2022-12-19T12:55:24.552Z,5.60
2022-12-19T12:57:51.922Z,5.60
2022-12-19T13:00:25.911Z,5.60
2022-12-19T13:02:55.128Z,5.60
2022-12-19T13:05:44.215Z,5.60
2022-12-19T13:08:48.715Z,5.60
2022-12-19T13:11:37.283Z,5.70
2022-12-19T13:14:06.664Z,5.70
2022-12-19T13:16:46.002Z,5.70
2022-12-19T13:19:29.294Z,5.70
2022-12-19T13:22:07.421Z,5.70
2022-12-19T13:24:53.582Z,5.60
2022-12-19T13:27:20.510Z,5.60
2022-12-19T13:29:51.802Z,5.70
2022-12-19T13:32:19.373Z,5.70
2022-12-19T13:35:16.544Z,5.70
2022-12-19T13:40:01.314Z,5.60
2022-12-19T13:40:55.475Z,5.70
2022-12-19T13:43:48.119Z,5.70
2022-12-19T13:46:33.295Z,5.70
2022-12-19T13:49:09.806Z,5.70
2022-12-19T13:51:48.441Z,5.70
2022-12-19T13:54:24.576Z,5.70
2022-12-19T13:56:53.531Z,5.70
2022-12-19T13:59:23.498Z,5.70
2022-12-19T14:01:53.475Z,5.80
2022-12-19T14:04:33.240Z,5.70
2022-12-19T14:07:04.365Z,5.70
2022-12-19T14:11:29.738Z,5.80
2022-12-19T14:13:40.713Z,5.80
2022-12-19T14:15:41.455Z,5.80
2022-12-19T14:18:42.526Z,5.80
2022-12-19T14:22:07.141Z,5.80
2022-12-19T14:24:20.147Z,5.80
2022-12-19T14:28:24.404Z,5.90
2022-12-19T14:30:27.442Z,5.90
2022-12-19T14:33:43.932Z,5.90
2022-12-19T14:36:05.844Z,5.90
2022-12-19T14:39:23.497Z,5.90
2022-12-19T14:41:46.362Z,6.00
2022-12-19T14:52:11.488Z,6.00
2022-12-19T14:54:14.514Z,6.00
2022-12-19T14:54:18.169Z,5.90
2022-12-19T14:54:52.673Z,6.00
2022-12-19T14:56:09.697Z,6.00
2022-12-19T14:58:52.175Z,6.10
2022-12-19T15:01:26.772Z,6.10
2022-12-19T15:04:52.362Z,6.20
2022-12-19T15:07:15.031Z,6.10
2022-12-19T15:11:06.500Z,6.20
2022-12-19T15:14:51.987Z,6.20
2022-12-19T15:16:06.117Z,6.20
2022-12-19T15:18:33.210Z,6.20
2022-12-19T15:21:02.357Z,6.30
2022-12-19T15:23:30.269Z,6.30
2022-12-19T15:26:05.568Z,6.40
2022-12-19T15:28:55.484Z,6.40
2022-12-19T15:31:42.521Z,6.40
2022-12-19T15:34:41.613Z,6.50
2022-12-19T15:37:14.369Z,6.50
2022-12-19T15:39:43.061Z,6.50
2022-12-19T15:42:23.427Z,6.50
2022-12-19T15:44:52.538Z,6.60
2022-12-19T15:47:33.141Z,6.60
2022-12-19T15:50:03.208Z,6.60
2022-12-19T15:52:30.587Z,6.70
2022-12-19T15:54:57.739Z,6.70
2022-12-19T15:57:42.150Z,6.80
2022-12-19T16:00:19.859Z,6.80
2022-12-19T16:03:22.756Z,6.80
2022-12-19T16:05:34.760Z,6.90
2022-12-19T16:08:01.832Z,6.90
2022-12-19T16:10:29.802Z,6.90
2022-12-19T16:12:58.003Z,6.90
2022-12-19T16:15:32.444Z,6.90
2022-12-19T16:18:02.919Z,7.00
2022-12-19T16:20:36.445Z,7.00
2022-12-19T16:23:04.260Z,7.00
2022-12-19T16:25:42.311Z,7.10
2022-12-19T16:28:26.717Z,7.10
2022-12-19T16:30:56.092Z,7.10
2022-12-19T16:33:29.576Z,7.10
2022-12-19T16:36:06.290Z,7.10
2022-12-19T16:38:34.353Z,7.20
2022-12-19T16:41:02.119Z,7.20
2022-12-19T16:43:34.110Z,7.20
2022-12-19T16:46:01.946Z,7.20
2022-12-19T16:48:30.216Z,7.20
2022-12-19T16:50:58.763Z,7.30
2022-12-19T16:53:26.563Z,7.30
2022-12-19T16:55:55.458Z,7.30
2022-12-19T16:58:26.421Z,7.30
2022-12-19T17:00:57.887Z,7.30
2022-12-19T17:03:44.055Z,7.30
2022-12-19T17:06:20.089Z,7.30
2022-12-19T17:08:47.773Z,7.30
2022-12-19T17:11:26.352Z,7.40
2022-12-19T17:14:01.414Z,7.40
2022-12-19T17:16:30.946Z,7.40
2022-12-19T17:18:59.283Z,7.40
2022-12-19T17:21:26.371Z,7.40
2022-12-19T17:23:53.370Z,7.40
2022-12-19T17:26:21.177Z,7.50
2022-12-19T17:28:48.453Z,7.50
2022-12-19T17:31:28.226Z,7.50
2022-12-19T17:33:57.869Z,7.50
2022-12-19T17:36:34.652Z,7.50
2022-12-19T17:39:25.588Z,7.50
2022-12-19T17:41:54.723Z,7.50
2022-12-19T17:44:21.712Z,7.60
2022-12-19T17:46:48.700Z,7.60
2022-12-19T17:49:28.609Z,7.60
2022-12-19T17:51:56.327Z,7.60
2022-12-19T17:54:24.169Z,7.60
2022-12-19T17:56:51.310Z,7.80
2022-12-19T17:59:18.427Z,7.70
2022-12-19T18:01:48.614Z,7.60
2022-12-19T18:04:20.238Z,7.60
2022-12-19T18:06:47.586Z,7.70
2022-12-19T18:09:23.503Z,7.70
2022-12-19T18:11:52.544Z,7.70
2022-12-19T18:14:19.814Z,7.70
2022-12-19T18:16:48.522Z,7.70
2022-12-19T18:19:22.464Z,7.70
2022-12-19T18:21:49.706Z,7.80
2022-12-19T18:24:17.145Z,7.80
2022-12-19T18:26:45.083Z,7.80
2022-12-19T18:29:12.876Z,7.80
2022-12-19T18:31:48.164Z,7.70
2022-12-19T18:34:26.631Z,7.80
2022-12-19T18:36:54.017Z,7.80
2022-12-19T18:39:26.151Z,7.90
2022-12-19T18:41:54.455Z,7.90
2022-12-19T18:44:24.931Z,7.90
2022-12-19T18:46:52.709Z,7.90
2022-12-19T18:49:20.049Z,7.90
2022-12-19T18:51:47.260Z,7.90
2022-12-19T18:54:18.138Z,7.90
2022-12-19T18:56:46.247Z,7.90
2022-12-19T18:59:13.303Z,7.90
2022-12-19T19:01:47.053Z,7.90
2022-12-19T19:04:17.533Z,8.00
2022-12-19T19:06:50.873Z,8.00
2022-12-19T19:09:20.507Z,8.00
2022-12-19T19:12:06.155Z,8.00
2022-12-19T19:14:33.311Z,8.00
2022-12-19T19:17:00.384Z,8.00
2022-12-19T19:19:27.395Z,8.00
2022-12-19T19:21:54.814Z,8.00
2022-12-19T19:24:23.310Z,8.00
2022-12-19T19:26:50.386Z,8.10
2022-12-19T19:29:19.886Z,8.10
2022-12-19T19:31:50.398Z,8.10
2022-12-19T19:34:32.663Z,8.10
2022-12-19T19:37:03.770Z,8.20
2022-12-19T19:39:33.693Z,8.20
2022-12-19T19:42:03.506Z,8.20
2022-12-19T19:44:30.932Z,8.20
2022-12-19T19:46:59.990Z,8.10
2022-12-19T19:49:32.067Z,8.20
2022-12-19T19:52:02.891Z,8.20
2022-12-19T19:54:31.554Z,8.20
2022-12-19T19:56:58.940Z,8.20
2022-12-19T19:59:30.714Z,8.20
2022-12-19T20:01:58.235Z,8.20
2022-12-19T20:04:25.806Z,8.20
2022-12-19T20:06:52.835Z,8.20
2022-12-19T20:09:20.147Z,8.20
2022-12-19T20:11:47.151Z,8.20
2022-12-19T20:14:14.710Z,8.20
2022-12-19T20:16:43.352Z,8.20
2022-12-19T20:19:10.775Z,8.20
2022-12-19T20:21:37.703Z,8.20
2022-12-19T20:24:05.295Z,8.20
2022-12-19T20:26:32.309Z,8.20
2022-12-19T20:28:59.383Z,8.20
2022-12-19T20:31:26.786Z,8.20
2022-12-19T20:33:55.624Z,8.20
2022-12-19T20:36:23.560Z,8.10
2022-12-19T20:38:51.632Z,8.10
2022-12-19T20:41:18.739Z,8.10
2022-12-19T20:43:46.128Z,8.10
2022-12-19T20:46:19.137Z,8.10
2022-12-19T20:48:47.614Z,8.10
2022-12-19T20:51:16.118Z,8.10
2022-12-19T20:53:43.951Z,8.00
2022-12-19T20:56:18.780Z,8.00
2022-12-19T20:58:47.018Z,8.00
2022-12-19T21:01:18.060Z,8.00
2022-12-19T21:03:46.659Z,8.00
2022-12-19T21:06:18.743Z,8.00
2022-12-19T21:08:46.732Z,8.00
2022-12-19T21:11:15.570Z,7.90
2022-12-19T21:13:43.284Z,7.90
2022-12-19T21:16:18.961Z,7.90
2022-12-19T21:18:47.824Z,7.90
2022-12-19T21:21:22.891Z,7.90
2022-12-19T21:23:51.009Z,7.90
2022-12-19T21:26:20.459Z,7.80
2022-12-19T21:28:48.061Z,7.80
2022-12-19T21:31:20.666Z,7.80
2022-12-19T21:33:48.700Z,7.80
2022-12-19T21:36:20.282Z,7.80
2022-12-19T21:38:49.513Z,7.70
2022-12-19T21:41:19.141Z,7.90
2022-12-19T21:43:51.664Z,7.70
2022-12-19T21:46:19.807Z,7.70
2022-12-19T21:48:49.525Z,7.70
2022-12-19T21:51:20.189Z,7.60
2022-12-19T21:53:47.674Z,7.60
2022-12-19T21:56:27.691Z,7.60
2022-12-19T21:58:59.466Z,7.60
2022-12-19T22:01:27.942Z,7.60
2022-12-19T22:04:01.564Z,7.60
2022-12-19T22:06:31.869Z,7.60
2022-12-19T22:09:00.285Z,7.60
2022-12-19T22:11:29.217Z,7.70
2022-12-19T22:13:58.871Z,7.60
2022-12-19T22:16:26.178Z,7.70
2022-12-19T22:18:54.668Z,7.70
2022-12-19T22:21:22.372Z,7.70
2022-12-19T22:23:50.361Z,7.90
2022-12-19T22:26:23.733Z,7.80
2022-12-19T22:28:54.024Z,7.80
2022-12-19T22:31:27.965Z,7.80
2022-12-19T22:33:58.765Z,7.80
2022-12-19T22:36:29.056Z,7.80
2022-12-19T22:38:58.807Z,7.80
2022-12-19T22:41:27.171Z,7.80
2022-12-19T22:43:54.982Z,7.90
2022-12-19T22:46:29.068Z,7.80
2022-12-19T22:48:59.489Z,7.90
2022-12-19T22:51:28.482Z,7.90
2022-12-19T22:53:56.883Z,7.90
2022-12-19T22:56:27.338Z,7.90
2022-12-19T22:58:59.824Z,7.90
2022-12-19T23:01:31.114Z,7.90
2022-12-19T23:04:00.499Z,7.90
2022-12-19T23:06:31.154Z,7.90
2022-12-19T23:08:58.529Z,7.90
2022-12-19T23:11:31.807Z,7.90
2022-12-19T23:14:00.857Z,7.90
2022-12-19T23:16:27.994Z,7.90
2022-12-19T23:18:54.912Z,8.00
2022-12-19T23:21:25.101Z,7.90
2022-12-19T23:23:54.493Z,8.00
2022-12-19T23:26:25.796Z,8.00
2022-12-19T23:28:56.666Z,8.00
2022-12-19T23:31:24.119Z,8.00
2022-12-19T23:33:51.841Z,8.00
2022-12-19T23:36:32.604Z,8.00
2022-12-19T23:39:06.511Z,8.00
2022-12-19T23:41:33.806Z,8.00
2022-12-19T23:44:00.886Z,8.10
2022-12-19T23:46:28.718Z,8.10
2022-12-19T23:48:55.992Z,8.10
2022-12-19T23:51:26.434Z,8.10
2022-12-19T23:53:55.643Z,8.10
2022-12-19T23:56:27.162Z,8.00
2022-12-19T23:58:54.893Z,8.10
